createdAt,value
2023-03-20T00:00:34.617Z,7.31
2023-03-20T00:07:10.328Z,7.31
2023-03-20T00:14:15.394Z,7.31
2023-03-20T00:21:24.491Z,7.33
2023-03-20T00:27:59.003Z,7.34
2023-03-20T00:34:53.441Z,7.34
2023-03-20T00:42:01.998Z,7.33
2023-03-20T00:49:05.026Z,7.34
2023-03-20T00:56:08.304Z,7.38
2023-03-20T01:02:59.996Z,7.41
2023-03-20T01:10:02.906Z,7.45
2023-03-20T01:16:46.481Z,7.45
2023-03-20T01:23:22.492Z,7.50
2023-03-20T01:30:07.021Z,7.53
2023-03-20T01:37:12.911Z,7.56
2023-03-20T01:43:55.644Z,7.56
2023-03-20T01:50:56.549Z,7.57
2023-03-20T01:57:25.116Z,7.58
2023-03-20T02:03:41.331Z,7.57
2023-03-20T02:10:51.443Z,7.51
2023-03-20T02:17:48.862Z,7.49
2023-03-20T02:25:01.777Z,7.51
2023-03-20T02:32:06.195Z,7.52
2023-03-20T02:38:51.531Z,7.51
2023-03-20T02:45:30.449Z,7.52
2023-03-20T02:52:35.955Z,7.53
2023-03-20T02:59:48.023Z,7.55
2023-03-20T03:06:21.431Z,7.54
2023-03-20T03:12:38.175Z,7.53
2023-03-20T03:19:15.823Z,7.50
2023-03-20T03:26:13.900Z,7.48
2023-03-20T03:32:52.302Z,7.44
2023-03-20T03:39:20.925Z,7.40
2023-03-20T03:46:24.016Z,7.33
2023-03-20T03:52:27.981Z,7.29
2023-03-20T03:59:42.420Z,7.22
2023-03-20T04:05:44.681Z,7.16
2023-03-20T04:12:24.949Z,7.11
2023-03-20T04:18:38.704Z,7.07
2023-03-20T04:24:47.556Z,7.00
2023-03-20T04:31:41.541Z,6.91
2023-03-20T04:38:24.620Z,6.85
2023-03-20T04:45:02.665Z,6.81
2023-03-20T04:51:18.155Z,6.82
2023-03-20T04:57:08.593Z,6.81
2023-03-20T05:03:41.112Z,6.83
2023-03-20T05:10:15.030Z,6.86
2023-03-20T05:16:37.614Z,6.93
2023-03-20T05:23:40.243Z,6.97
2023-03-20T05:30:28.566Z,7.02
2023-03-20T05:37:12.231Z,7.08
2023-03-20T05:43:58.243Z,7.11
2023-03-20T05:50:34.446Z,7.16
2023-03-20T05:57:42.933Z,7.26
2023-03-20T06:04:39.959Z,7.33
2023-03-20T06:11:16.417Z,7.47
2023-03-20T06:17:01.547Z,7.53
2023-03-20T06:23:00.128Z,7.54
2023-03-20T06:28:45.530Z,7.62
2023-03-20T06:34:37.843Z,7.68
2023-03-20T06:40:43.758Z,7.71
2023-03-20T06:46:53.855Z,7.83
2023-03-20T06:52:58.213Z,7.96
2023-03-20T06:58:46.045Z,8.12
2023-03-20T07:04:38.409Z,8.20
2023-03-20T07:10:24.907Z,8.33
2023-03-20T07:16:04.554Z,8.45
2023-03-20T07:21:59.488Z,8.55
2023-03-20T07:27:03.136Z,8.67
2023-03-20T07:32:59.521Z,8.83
2023-03-20T07:39:12.059Z,9.02
2023-03-20T07:44:43.059Z,9.18
2023-03-20T07:49:57.228Z,9.29
2023-03-20T07:55:13.192Z,9.38
2023-03-20T08:00:45.742Z,9.44
2023-03-20T08:05:54.530Z,9.51
2023-03-20T08:11:18.353Z,9.66
2023-03-20T08:16:32.445Z,9.81
2023-03-20T08:22:44.302Z,9.98
2023-03-20T08:28:02.452Z,10.15
2023-03-20T08:33:30.825Z,10.33
2023-03-20T08:39:37.542Z,10.53
2023-03-20T08:45:39.752Z,10.66
2023-03-20T08:52:12.157Z,10.64
2023-03-20T08:58:43.747Z,10.63
2023-03-20T09:05:05.360Z,10.71
2023-03-20T09:11:47.332Z,10.86
2023-03-20T09:18:12.386Z,10.99
2023-03-20T09:23:56.354Z,11.17
2023-03-20T09:29:23.005Z,11.23
2023-03-20T09:35:27.484Z,11.30
2023-03-20T09:41:33.504Z,11.46
2023-03-20T09:47:58.317Z,11.89
2023-03-20T09:54:46.996Z,12.21
2023-03-20T10:01:07.212Z,12.36
2023-03-20T10:07:29.590Z,12.79
2023-03-20T10:13:53.515Z,13.03
2023-03-20T10:19:53.343Z,13.32
2023-03-20T10:25:19.050Z,13.08
2023-03-20T10:31:00.756Z,12.85
2023-03-20T10:36:54.173Z,12.69
2023-03-20T10:42:24.482Z,12.97
2023-03-20T10:48:05.221Z,13.69
2023-03-20T10:54:18.302Z,13.90
2023-03-20T11:00:55.241Z,14.16
2023-03-20T11:07:23.430Z,14.56
2023-03-20T11:13:34.824Z,15.16
2023-03-20T11:19:06.039Z,15.88
2023-03-20T11:24:58.329Z,16.62
2023-03-20T11:31:24.797Z,17.30
2023-03-20T11:37:08.719Z,17.39
2023-03-20T11:42:40.234Z,17.39
2023-03-20T11:48:13.858Z,17.42
2023-03-20T11:53:28.138Z,17.41
2023-03-20T11:59:12.108Z,17.36
2023-03-20T12:04:33.391Z,17.31
2023-03-20T12:10:22.493Z,17.61
2023-03-20T12:15:47.189Z,17.28
2023-03-20T12:21:38.218Z,16.71
2023-03-20T12:27:49.875Z,16.32
2023-03-20T12:33:38.406Z,16.34
2023-03-20T12:39:17.488Z,16.29
2023-03-20T12:44:58.513Z,16.10
2023-03-20T12:50:50.044Z,15.86
2023-03-20T12:56:33.335Z,15.56
2023-03-20T13:03:21.329Z,15.28
2023-03-20T13:09:27.158Z,15.15
2023-03-20T13:15:08.576Z,15.26
2023-03-20T13:20:31.776Z,15.43
2023-03-20T13:26:19.902Z,15.51
2023-03-20T13:32:09.831Z,15.36
2023-03-20T13:37:51.311Z,15.15
2023-03-20T13:43:24.077Z,14.94
2023-03-20T13:48:43.823Z,14.74
2023-03-20T13:54:04.168Z,14.58
2023-03-20T13:59:55.661Z,14.47
2023-03-20T14:05:28.474Z,14.41
2023-03-20T14:11:20.515Z,14.51
2023-03-20T14:16:49.591Z,14.55
2023-03-20T14:22:04.800Z,14.53
2023-03-20T14:27:44.581Z,14.44
2023-03-20T14:33:23.641Z,14.31
2023-03-20T14:38:38.208Z,14.17
2023-03-20T14:44:22.603Z,14.06
2023-03-20T14:49:56.476Z,14.00
2023-03-20T14:55:59.222Z,13.98
2023-03-20T15:01:35.535Z,13.97
2023-03-20T15:06:54.424Z,13.95
2023-03-20T15:12:20.380Z,13.96
2023-03-20T15:17:49.808Z,13.99
2023-03-20T15:23:06.194Z,14.03
2023-03-20T15:28:25.562Z,14.01
2023-03-20T15:33:52.433Z,13.97
2023-03-20T15:39:04.533Z,13.88
2023-03-20T15:44:35.723Z,14.28
2023-03-20T15:49:43.154Z,14.57
2023-03-20T15:54:55.394Z,14.66
2023-03-20T16:00:14.919Z,14.68
2023-03-20T16:05:26.687Z,14.73
2023-03-20T16:10:43.370Z,14.79
2023-03-20T16:16:12.571Z,14.63
2023-03-20T16:21:33.104Z,14.20
2023-03-20T16:26:50.496Z,13.83
2023-03-20T16:33:09.116Z,13.45
2023-03-20T16:38:25.537Z,13.27
2023-03-20T16:43:57.611Z,13.11
2023-03-20T16:49:34.020Z,12.99
2023-03-20T16:54:37.357Z,12.88
2023-03-20T17:00:32.358Z,12.72
2023-03-20T17:06:17.221Z,12.52
2023-03-20T17:11:33.557Z,12.30
2023-03-20T17:16:55.545Z,12.19
2023-03-20T17:22:39.021Z,12.15
2023-03-20T17:28:03.990Z,12.14
2023-03-20T17:33:16.530Z,12.05
2023-03-20T17:38:23.921Z,11.93
2023-03-20T17:43:31.545Z,11.78
2023-03-20T17:48:37.195Z,11.71
2023-03-20T17:53:43.067Z,11.63
2023-03-20T17:58:53.531Z,11.54
2023-03-20T18:04:03.103Z,11.49
2023-03-20T18:09:14.921Z,11.43
2023-03-20T18:14:20.131Z,11.31
2023-03-20T18:19:28.980Z,11.19
2023-03-20T18:24:31.386Z,11.12
2023-03-20T18:29:59.284Z,11.09
2023-03-20T18:35:01.330Z,11.08
2023-03-20T18:40:03.969Z,11.09
2023-03-20T18:45:27.817Z,11.07
2023-03-20T18:50:42.400Z,11.07
2023-03-20T18:56:03.579Z,11.08
2023-03-20T19:01:41.426Z,11.15
2023-03-20T19:07:27.448Z,11.18
2023-03-20T19:12:44.076Z,11.13
2023-03-20T19:17:53.225Z,11.03
2023-03-20T19:23:08.624Z,10.97
2023-03-20T19:28:39.133Z,10.95
2023-03-20T19:34:24.839Z,10.91
2023-03-20T19:39:41.045Z,10.82
2023-03-20T19:44:42.957Z,10.69
2023-03-20T19:49:46.524Z,10.54
2023-03-20T19:55:08.990Z,10.43
2023-03-20T20:01:16.597Z,10.36
2023-03-20T20:06:31.286Z,10.25
2023-03-20T20:11:45.372Z,10.16
2023-03-20T20:17:01.574Z,10.03
2023-03-20T20:22:24.767Z,9.91
2023-03-20T20:28:00.229Z,9.80
2023-03-20T20:33:39.734Z,9.72
2023-03-20T20:39:20.811Z,9.64
2023-03-20T20:44:46.994Z,9.59
2023-03-20T20:50:13.550Z,9.60
2023-03-20T20:55:28.673Z,9.59
2023-03-20T21:00:56.610Z,9.61
2023-03-20T21:06:15.314Z,9.60
2023-03-20T21:11:31.935Z,9.63
2023-03-20T21:17:24.804Z,9.71
2023-03-20T21:23:07.259Z,9.82
2023-03-20T21:28:27.817Z,9.79
2023-03-20T21:34:09.609Z,9.68
2023-03-20T21:40:13.611Z,9.61
2023-03-20T21:52:20.147Z,9.69
2023-03-20T21:58:33.161Z,9.71
2023-03-20T22:17:20.596Z,9.63
2023-03-20T22:23:03.345Z,9.58
2023-03-20T22:28:41.502Z,9.58
2023-03-20T22:46:57.964Z,9.62
2023-03-20T22:53:36.891Z,9.58
2023-03-20T22:59:58.383Z,9.55
2023-03-20T23:05:37.905Z,9.48
2023-03-20T23:11:59.969Z,9.42
2023-03-20T23:18:15.713Z,9.39
2023-03-20T23:24:52.147Z,9.42
2023-03-20T23:31:13.918Z,9.22
2023-03-20T23:38:06.438Z,9.17
2023-03-20T23:44:53.425Z,9.24
2023-03-20T23:51:55.462Z,9.30
2023-03-20T23:59:03.207Z,9.16
